Etusivu
METAR-TAF:

METAR-TAF

Lentoasemat :

Yuma, Arizona, Yhdysvallat

Leveyspiiri: 32-37-25N, Pituuspiiri: 113-45-50W, korkeus merenpinnasta: 64 m

Tämänhetkinen sää

Tämä raportti tehtiin 1 tunti ja 11 minuuttia sitten, kello 03.57 UTC
Tuuli 9 kn lännestä
Lämpötila 22°C
Kosteus 25%
Ilmanpaine 1008 hPa
Näkyvyys: 16.1 km
selkeää

METAR: KNYL 040357Z AUTO 26009KT 10SM CLR 22/01 A2977 RMK AO2 SLP077 T02220006 $

Aika: 22:08 (05:08 UTC)

Sääennuste

Ennuste voimassa 04. päivästä klo 03 UTC - 05. päivään klo 03 UTC
Tuuli 5 kn eri suunnista
Näkyvyys 10 km tai enemmän
selkeää
From 04. päivästä klo 1730 UTC
Tuuli 8 kn etelästä/lounaasta
Näkyvyys 10 km tai enemmän
selkeää
Ajoittain
04. päivästä klo 18 UTC - 05. päivään klo 00 UTC
Tuuli 8 kn etelästä/lounaasta puuskistuen 16 kn:hen

TAF: KNYL 0403/0503 VRB05KT 9999 SKC QNH2973INS FM041730 21008KT 9999 SKC QNH2967INS TEMPO 0418/0500 21008G16KT T15/0412Z T28/0421Z

Säähavainnot ja -ennusteet yli 4000 lentoasemalta (METAR- ja TAF-raportit).

Käytössä olevat sääasemat on merkitty karttaan keltaisilla ja punaisilla pisteillä.

Aseta hiiri pisteen päälle nähdäksesi sääaseman nimen.

Klikkaa sitten nähdäksesi säähavainnot ja -ennusteet.

Kartan vaihtaminen: klikkaa mustalla rastilla varustettuja vihreitä pisteitä, niin voit zoomata sisään; viivalla varustettua vihreää pistettä, niin voit zoomata ulos tai vihreitä nuolia, niin pääset viereisille kartoille.


METAR-TAF: